createdAt,value
2022-10-06T00:01:54.873Z,14.36
2022-10-06T00:04:36.059Z,14.35
2022-10-06T00:07:11.837Z,14.33
2022-10-06T00:10:12.645Z,14.31
2022-10-06T00:12:49.707Z,14.28
2022-10-06T00:15:50.078Z,14.30
2022-10-06T00:18:22.266Z,14.31
2022-10-06T00:21:03.959Z,14.31
2022-10-06T00:23:54.815Z,14.29
2022-10-06T00:26:34.644Z,14.31
2022-10-06T00:29:07.602Z,14.29
2022-10-06T00:31:38.275Z,14.31
2022-10-06T00:34:19.487Z,14.33
2022-10-06T00:37:00.519Z,14.33
2022-10-06T00:39:34.032Z,14.36
2022-10-06T00:42:46.176Z,14.38
2022-10-06T00:45:57.920Z,14.40
2022-10-06T00:49:18.886Z,14.36
2022-10-06T00:52:08.245Z,14.30
2022-10-06T00:55:18.843Z,14.26
2022-10-06T00:58:07.146Z,14.25
2022-10-06T01:01:34.156Z,14.23
2022-10-06T01:04:34.635Z,14.18
2022-10-06T01:07:20.752Z,14.12
2022-10-06T01:10:38.918Z,14.06
2022-10-06T01:14:03.824Z,14.04
2022-10-06T01:17:07.624Z,14.04
2022-10-06T01:20:13.842Z,14.02
2022-10-06T01:24:05.349Z,14.02
2022-10-06T01:27:48.922Z,14.02
2022-10-06T01:30:45.858Z,14.03
2022-10-06T01:34:31.645Z,14.04
2022-10-06T01:37:44.552Z,14.01
2022-10-06T01:40:57.934Z,13.95
2022-10-06T01:43:43.513Z,13.88
2022-10-06T01:46:52.896Z,13.83
2022-10-06T01:49:22.883Z,13.80
2022-10-06T01:52:04.960Z,13.79
2022-10-06T01:54:35.843Z,13.76
2022-10-06T01:58:12.944Z,13.74
2022-10-06T02:01:04.878Z,13.71
2022-10-06T02:03:43.885Z,13.68
2022-10-06T02:06:16.696Z,13.67
2022-10-06T02:09:03.370Z,13.66
2022-10-06T02:11:57.488Z,13.65
2022-10-06T02:14:53.586Z,13.63
2022-10-06T02:17:41.520Z,13.62
2022-10-06T02:20:12.040Z,13.61
2022-10-06T02:22:43.410Z,13.63
2022-10-06T02:25:17.914Z,13.65
2022-10-06T02:28:06.432Z,13.65
2022-10-06T02:30:38.691Z,13.66
2022-10-06T02:33:14.685Z,13.70
2022-10-06T02:36:00.230Z,13.70
2022-10-06T02:38:36.005Z,13.71
2022-10-06T02:41:23.638Z,13.74
2022-10-06T02:44:19.938Z,13.78
2022-10-06T02:47:43.667Z,13.89
2022-10-06T02:50:20.474Z,13.96
2022-10-06T02:53:12.677Z,14.03
2022-10-06T02:55:45.384Z,14.09
2022-10-06T02:58:40.651Z,14.13
2022-10-06T03:02:11.974Z,14.20
2022-10-06T03:05:19.256Z,14.21
2022-10-06T03:08:26.879Z,14.20
2022-10-06T03:11:30.430Z,14.18
2022-10-06T03:14:19.095Z,14.18
2022-10-06T03:16:59.470Z,14.18
2022-10-06T03:19:57.628Z,14.16
2022-10-06T03:22:31.788Z,14.16
2022-10-06T03:26:01.842Z,14.16
2022-10-06T03:29:12.782Z,14.14
2022-10-06T03:32:35.658Z,14.11
2022-10-06T03:35:14.828Z,14.06
2022-10-06T03:38:05.824Z,13.99
2022-10-06T03:41:12.781Z,13.93
2022-10-06T03:44:05.553Z,13.90
2022-10-06T03:47:16.209Z,13.86
2022-10-06T03:49:48.635Z,13.81
2022-10-06T03:52:26.119Z,13.78
2022-10-06T03:55:07.682Z,13.74
2022-10-06T03:57:49.849Z,13.68
2022-10-06T04:00:45.940Z,13.61
2022-10-06T04:03:14.041Z,13.54
2022-10-06T04:06:28.249Z,13.45
2022-10-06T04:09:14.924Z,13.36
2022-10-06T04:11:54.871Z,13.25
2022-10-06T04:14:35.586Z,13.15
2022-10-06T04:17:15.208Z,13.10
2022-10-06T04:20:03.350Z,13.00
2022-10-06T04:22:34.603Z,12.94
2022-10-06T04:25:14.545Z,12.89
2022-10-06T04:28:21.499Z,12.86
2022-10-06T04:31:19.505Z,12.81
2022-10-06T04:34:16.665Z,12.75
2022-10-06T04:36:53.176Z,12.70
2022-10-06T04:39:28.849Z,12.66
2022-10-06T04:42:43.510Z,12.62
2022-10-06T04:45:57.247Z,12.59
2022-10-06T04:48:33.682Z,12.56
2022-10-06T04:51:32.207Z,12.55
2022-10-06T04:54:46.652Z,12.55
2022-10-06T04:57:16.976Z,12.60
2022-10-06T05:00:10.043Z,12.69
2022-10-06T05:03:01.810Z,12.81
2022-10-06T05:05:30.810Z,12.92
2022-10-06T05:09:14.388Z,13.03
2022-10-06T05:12:17.477Z,13.14
2022-10-06T05:15:40.044Z,13.21
2022-10-06T05:18:37.607Z,13.32
2022-10-06T05:21:30.799Z,13.41
2022-10-06T05:24:23.692Z,13.53
2022-10-06T05:27:08.027Z,13.65
2022-10-06T05:29:42.127Z,13.73
2022-10-06T05:32:36.239Z,13.80
2022-10-06T05:39:32.298Z,13.93
2022-10-06T05:42:09.007Z,13.98
2022-10-06T05:44:52.218Z,14.02
2022-10-06T05:47:59.895Z,14.07
2022-10-06T05:50:27.024Z,14.10
2022-10-06T05:52:54.957Z,14.13
2022-10-06T05:55:22.780Z,14.15
2022-10-06T05:57:59.480Z,14.18
2022-10-06T06:00:37.792Z,14.20
2022-10-06T06:03:09.001Z,14.22
2022-10-06T06:05:46.053Z,14.24
2022-10-06T06:08:22.247Z,14.27
2022-10-06T06:10:49.246Z,14.31
2022-10-06T06:13:23.116Z,14.35
2022-10-06T06:16:03.587Z,14.38
2022-10-06T06:18:36.898Z,14.43
2022-10-06T06:21:06.910Z,14.47
2022-10-06T06:23:46.207Z,14.50
2022-10-06T06:26:23.169Z,14.57
2022-10-06T06:29:09.542Z,14.62
2022-10-06T06:31:43.732Z,14.69
2022-10-06T06:34:15.535Z,14.75
2022-10-06T06:36:54.678Z,14.82
2022-10-06T06:39:21.956Z,14.86
2022-10-06T06:42:08.710Z,14.90
2022-10-06T06:44:39.092Z,14.93
2022-10-06T06:47:06.163Z,14.94
2022-10-06T06:49:42.521Z,14.95
2022-10-06T06:52:10.378Z,14.97
2022-10-06T06:54:40.090Z,14.99
2022-10-06T06:57:07.590Z,14.98
2022-10-06T06:59:37.321Z,14.99
2022-10-06T07:02:04.652Z,14.97
2022-10-06T07:04:36.902Z,14.94
2022-10-06T07:07:11.422Z,14.91
2022-10-06T07:10:34.291Z,14.91
2022-10-06T07:13:07.899Z,14.93
2022-10-06T07:15:53.584Z,14.96
2022-10-06T07:18:41.725Z,14.97
2022-10-06T07:21:32.116Z,14.94
2022-10-06T07:24:27.844Z,14.90
2022-10-06T07:27:06.615Z,14.91
2022-10-06T07:29:56.456Z,14.97
2022-10-06T07:32:34.716Z,15.00
2022-10-06T07:35:38.285Z,15.01
2022-10-06T07:38:14.251Z,14.97
2022-10-06T07:41:14.563Z,14.96
2022-10-06T07:43:53.397Z,14.97
2022-10-06T07:46:20.865Z,15.01
2022-10-06T07:48:51.368Z,15.00
2022-10-06T07:51:20.151Z,15.01
2022-10-06T07:53:50.307Z,15.03
2022-10-06T07:56:19.941Z,15.01
2022-10-06T07:58:55.453Z,14.85
2022-10-06T08:01:33.834Z,14.68
2022-10-06T08:04:44.627Z,14.57
2022-10-06T08:07:15.554Z,14.54
2022-10-06T08:09:43.629Z,14.57
2022-10-06T08:12:34.432Z,14.57
2022-10-06T08:15:06.024Z,14.52
2022-10-06T08:17:36.201Z,14.47
2022-10-06T08:20:20.240Z,14.46
2022-10-06T08:22:57.962Z,14.53
2022-10-06T08:25:25.317Z,14.60
2022-10-06T08:28:08.604Z,14.66
2022-10-06T08:30:59.557Z,14.71
2022-10-06T08:33:47.939Z,14.74
2022-10-06T08:36:20.244Z,14.75
2022-10-06T08:38:50.824Z,14.79
2022-10-06T08:41:45.591Z,14.83
2022-10-06T08:44:28.061Z,14.87
2022-10-06T08:47:13.280Z,14.86
2022-10-06T08:49:46.616Z,14.95
2022-10-06T08:52:22.412Z,15.06
2022-10-06T08:55:13.074Z,15.15
2022-10-06T08:58:18.492Z,15.20
2022-10-06T09:01:13.381Z,15.22
2022-10-06T09:03:51.850Z,15.32
2022-10-06T09:06:34.850Z,15.38
2022-10-06T09:10:11.803Z,15.40
2022-10-06T09:13:21.798Z,15.56
2022-10-06T09:16:07.124Z,15.83
2022-10-06T09:19:09.086Z,15.85
2022-10-06T09:21:46.078Z,15.90
2022-10-06T09:24:47.578Z,15.97
2022-10-06T09:28:01.145Z,16.05
2022-10-06T09:31:21.191Z,15.94
2022-10-06T09:33:52.924Z,15.94
2022-10-06T09:36:31.500Z,15.91
2022-10-06T09:39:20.238Z,15.80
2022-10-06T09:41:54.665Z,15.76
2022-10-06T09:44:37.764Z,15.85
2022-10-06T09:47:43.794Z,15.92
2022-10-06T09:50:29.537Z,16.04
2022-10-06T09:53:04.369Z,16.13
2022-10-06T09:55:39.951Z,16.24
2022-10-06T09:58:40.895Z,16.22
2022-10-06T10:01:19.051Z,16.12
2022-10-06T10:04:21.594Z,16.00
2022-10-06T10:06:53.438Z,15.88
2022-10-06T10:09:27.148Z,15.97
2022-10-06T10:12:24.720Z,16.14
2022-10-06T10:15:19.118Z,16.42
2022-10-06T10:17:55.487Z,16.68
2022-10-06T10:20:28.261Z,16.88
2022-10-06T10:23:01.844Z,17.05
2022-10-06T10:26:17.713Z,17.08
2022-10-06T10:29:06.622Z,17.23
2022-10-06T10:32:07.214Z,17.29
2022-10-06T10:35:13.111Z,17.49
2022-10-06T10:37:57.064Z,17.42
2022-10-06T10:40:35.992Z,17.35
2022-10-06T10:43:31.661Z,17.49
2022-10-06T10:46:27.458Z,17.57
2022-10-06T10:49:43.222Z,17.52
2022-10-06T10:52:29.094Z,17.59
2022-10-06T10:55:18.142Z,17.63
2022-10-06T10:57:56.180Z,17.80
2022-10-06T11:00:37.325Z,18.11
2022-10-06T11:03:15.258Z,18.23
2022-10-06T11:05:59.931Z,18.10
2022-10-06T11:08:46.894Z,18.11
2022-10-06T11:11:43.610Z,17.87
2022-10-06T11:14:45.288Z,17.53
2022-10-06T11:17:39.921Z,17.32
2022-10-06T11:20:31.376Z,17.36
2022-10-06T11:23:41.412Z,17.42
2022-10-06T11:26:15.283Z,17.55
2022-10-06T11:28:52.490Z,17.79
2022-10-06T11:31:38.403Z,17.85
2022-10-06T11:34:08.078Z,18.01
2022-10-06T11:37:15.018Z,18.31
2022-10-06T11:40:11.871Z,18.59
2022-10-06T11:42:57.110Z,18.71
2022-10-06T11:45:39.167Z,18.71
2022-10-06T11:48:29.468Z,18.83
2022-10-06T11:51:16.885Z,18.63
2022-10-06T11:53:44.642Z,18.84
2022-10-06T11:56:16.975Z,18.97
2022-10-06T11:58:50.916Z,18.66
2022-10-06T12:01:48.145Z,18.38
2022-10-06T12:04:19.575Z,18.12
2022-10-06T12:06:58.367Z,18.21
2022-10-06T12:09:25.586Z,18.15
2022-10-06T12:11:56.838Z,18.08
2022-10-06T12:18:22.065Z,18.31
2022-10-06T12:21:28.696Z,18.01
2022-10-06T12:24:06.829Z,17.55
2022-10-06T12:26:40.008Z,17.30
2022-10-06T12:29:31.167Z,17.36
2022-10-06T12:32:12.439Z,17.72
2022-10-06T12:34:39.557Z,17.91
2022-10-06T12:37:29.450Z,17.93
2022-10-06T12:40:15.254Z,17.90
2022-10-06T12:42:45.758Z,17.88
2022-10-06T12:45:16.521Z,17.93
2022-10-06T12:47:47.033Z,17.97
2022-10-06T12:50:22.308Z,18.17
2022-10-06T12:53:05.177Z,18.45
2022-10-06T12:55:43.564Z,18.50
2022-10-06T12:58:19.346Z,18.60
2022-10-06T13:00:47.614Z,18.85
2022-10-06T13:03:18.254Z,19.18
2022-10-06T13:05:51.545Z,19.03
2022-10-06T13:08:26.171Z,18.75
2022-10-06T13:11:22.565Z,18.74
2022-10-06T13:14:00.475Z,18.97
2022-10-06T13:16:36.347Z,18.69
2022-10-06T13:19:04.743Z,18.55
2022-10-06T13:21:36.522Z,18.70
2022-10-06T13:24:03.533Z,18.79
2022-10-06T13:26:34.259Z,18.84
2022-10-06T13:30:10.553Z,19.23
2022-10-06T13:32:39.254Z,19.35
2022-10-06T13:35:12.653Z,19.51
2022-10-06T13:37:41.307Z,19.44
2022-10-06T13:40:45.508Z,19.29
2022-10-06T13:43:18.620Z,19.21
2022-10-06T13:45:48.783Z,18.90
2022-10-06T13:48:21.394Z,18.68
2022-10-06T13:50:50.204Z,18.19
2022-10-06T13:53:31.368Z,17.69
2022-10-06T13:55:59.636Z,17.17
2022-10-06T13:58:30.250Z,16.84
2022-10-06T14:01:01.170Z,16.69
2022-10-06T14:03:37.923Z,17.08
2022-10-06T14:06:19.804Z,17.65
2022-10-06T14:08:55.108Z,18.33
2022-10-06T14:11:28.782Z,18.96
2022-10-06T14:14:03.804Z,19.49
2022-10-06T14:16:34.448Z,19.51
2022-10-06T14:19:07.219Z,19.33
2022-10-06T14:21:42.164Z,19.43
2022-10-06T14:24:16.721Z,19.42
2022-10-06T14:26:49.951Z,19.23
2022-10-06T14:29:25.017Z,19.13
2022-10-06T14:31:53.655Z,19.16
2022-10-06T14:34:22.741Z,19.14
2022-10-06T14:36:51.944Z,18.97
2022-10-06T14:39:20.610Z,18.80
2022-10-06T14:41:49.748Z,18.88
2022-10-06T14:44:17.957Z,19.12
2022-10-06T14:46:48.762Z,19.30
2022-10-06T14:49:17.766Z,19.28
2022-10-06T14:51:46.547Z,19.08
2022-10-06T14:54:17.678Z,18.96
2022-10-06T14:56:45.805Z,18.72
2022-10-06T14:59:17.417Z,18.98
2022-10-06T15:01:47.096Z,18.93
2022-10-06T15:04:19.811Z,18.49
2022-10-06T15:07:06.841Z,17.95
2022-10-06T15:09:35.994Z,17.41
2022-10-06T15:12:06.558Z,17.07
2022-10-06T15:14:40.053Z,16.83
2022-10-06T15:17:08.659Z,16.66
2022-10-06T15:19:37.864Z,16.57
2022-10-06T15:22:09.038Z,16.48
2022-10-06T15:24:37.700Z,16.39
2022-10-06T15:27:25.203Z,16.33
2022-10-06T15:29:54.065Z,16.26
2022-10-06T15:32:22.700Z,16.20
2022-10-06T15:34:52.428Z,16.15
2022-10-06T15:37:20.577Z,16.15
2022-10-06T15:39:52.331Z,16.02
2022-10-06T15:42:24.338Z,15.92
2022-10-06T15:44:52.566Z,15.83
2022-10-06T15:47:21.123Z,15.71
2022-10-06T15:49:49.489Z,15.61
2022-10-06T15:52:18.783Z,15.51
2022-10-06T15:54:48.793Z,15.39
2022-10-06T15:57:20.943Z,15.28
2022-10-06T15:59:49.866Z,15.22
2022-10-06T16:02:20.122Z,15.14
2022-10-06T16:05:04.965Z,15.04
2022-10-06T16:07:34.208Z,14.95
2022-10-06T16:10:02.542Z,14.85
2022-10-06T16:12:31.022Z,14.75
2022-10-06T16:15:00.211Z,14.63
2022-10-06T16:17:28.297Z,14.54
2022-10-06T16:19:56.599Z,14.44
2022-10-06T16:22:24.694Z,14.35
2022-10-06T16:24:53.022Z,14.27
2022-10-06T16:27:21.478Z,14.21
2022-10-06T16:29:49.589Z,14.13
2022-10-06T16:32:18.267Z,14.01
2022-10-06T16:34:50.622Z,13.96
2022-10-06T16:37:19.432Z,13.90
2022-10-06T16:39:47.637Z,13.85
2022-10-06T16:42:18.643Z,13.81
2022-10-06T16:44:46.854Z,13.79
2022-10-06T16:47:15.569Z,13.77
2022-10-06T16:49:46.568Z,13.74
2022-10-06T16:52:15.195Z,13.74
2022-10-06T16:54:43.589Z,13.72
2022-10-06T16:57:11.830Z,13.69
2022-10-06T16:59:44.437Z,13.68
2022-10-06T17:02:16.188Z,13.66
2022-10-06T17:04:44.472Z,13.63
2022-10-06T17:07:12.587Z,13.60
2022-10-06T17:09:51.072Z,13.58
2022-10-06T17:12:29.563Z,13.57
2022-10-06T17:14:57.870Z,13.57
2022-10-06T17:17:26.312Z,13.60
2022-10-06T17:20:04.494Z,13.60
2022-10-06T17:22:35.902Z,13.57
2022-10-06T17:25:11.330Z,13.51
2022-10-06T17:27:43.626Z,13.47
2022-10-06T17:30:17.959Z,13.41
2022-10-06T17:32:48.435Z,13.35
2022-10-06T17:35:20.149Z,13.30
2022-10-06T17:37:50.664Z,13.25
2022-10-06T17:40:21.762Z,13.22
2022-10-06T17:42:53.042Z,13.21
2022-10-06T17:45:23.130Z,13.19
2022-10-06T17:47:54.349Z,13.17
2022-10-06T17:50:25.209Z,13.15
2022-10-06T17:52:53.770Z,13.13
2022-10-06T17:55:22.836Z,13.16
2022-10-06T17:57:53.531Z,13.20
2022-10-06T18:00:27.801Z,13.19
2022-10-06T18:03:03.433Z,13.19
2022-10-06T18:05:34.580Z,13.19
2022-10-06T18:08:05.891Z,13.18
2022-10-06T18:11:08.853Z,13.15
2022-10-06T18:13:38.391Z,13.11
2022-10-06T18:16:19.876Z,13.06
2022-10-06T18:18:59.274Z,13.01
2022-10-06T18:21:39.226Z,12.98
2022-10-06T18:24:13.636Z,12.95
2022-10-06T18:26:44.817Z,12.92
2022-10-06T18:29:13.607Z,12.89
2022-10-06T18:31:42.590Z,12.86
2022-10-06T18:37:05.421Z,12.80
2022-10-06T18:39:40.675Z,12.77
2022-10-06T18:42:12.249Z,12.76
2022-10-06T18:44:59.347Z,12.75
2022-10-06T18:47:57.685Z,12.74
2022-10-06T18:50:33.082Z,12.73
2022-10-06T18:53:07.165Z,12.71
2022-10-06T18:55:35.644Z,12.70
2022-10-06T18:58:05.374Z,12.65
2022-10-06T19:00:33.970Z,12.60
2022-10-06T19:03:07.411Z,12.54
2022-10-06T19:05:44.386Z,12.49
2022-10-06T19:08:12.838Z,12.44
2022-10-06T19:11:02.365Z,12.38
2022-10-06T19:13:30.596Z,12.32
2022-10-06T19:16:00.221Z,12.27
2022-10-06T19:18:37.464Z,12.26
2022-10-06T19:21:09.659Z,12.28
2022-10-06T19:23:39.089Z,12.31
2022-10-06T19:26:14.292Z,12.31
2022-10-06T19:28:50.004Z,12.31
2022-10-06T19:31:20.446Z,12.32
2022-10-06T19:33:48.968Z,12.33
2022-10-06T19:36:24.428Z,12.32
2022-10-06T19:39:07.712Z,12.28
2022-10-06T19:42:00.391Z,12.25
2022-10-06T19:44:31.408Z,12.16
2022-10-06T19:47:00.283Z,12.02
2022-10-06T19:49:31.428Z,11.84
2022-10-06T19:51:59.937Z,11.71
2022-10-06T19:54:33.750Z,11.61
2022-10-06T19:57:07.393Z,11.59
2022-10-06T19:59:38.436Z,11.57
2022-10-06T20:02:23.287Z,11.54
2022-10-06T20:04:54.888Z,11.47
2022-10-06T20:07:28.050Z,11.39
2022-10-06T20:09:58.490Z,11.28
2022-10-06T20:12:29.325Z,11.13
2022-10-06T20:15:07.048Z,11.03
2022-10-06T20:17:43.044Z,10.92
2022-10-06T20:20:20.811Z,10.86
2022-10-06T20:23:04.026Z,10.89
2022-10-06T20:25:49.500Z,10.86
2022-10-06T20:28:35.892Z,10.82
2022-10-06T20:31:20.903Z,10.83
2022-10-06T20:33:53.947Z,10.87
2022-10-06T20:36:30.797Z,10.96
2022-10-06T20:39:20.928Z,11.08
2022-10-06T20:41:53.965Z,11.11
2022-10-06T20:44:23.289Z,11.06
2022-10-06T20:46:52.318Z,10.97
2022-10-06T20:49:21.649Z,10.87
2022-10-06T20:51:52.099Z,10.78
2022-10-06T20:54:35.311Z,10.76
2022-10-06T20:57:06.471Z,10.71
2022-10-06T20:59:35.681Z,10.72
2022-10-06T21:02:05.675Z,10.74
2022-10-06T21:04:35.114Z,10.70
2022-10-06T21:07:07.958Z,10.63
2022-10-06T21:09:51.259Z,10.56
2022-10-06T21:12:23.529Z,10.56
2022-10-06T21:14:53.810Z,10.56
2022-10-06T21:17:22.387Z,10.53
2022-10-06T21:19:50.830Z,10.49
2022-10-06T21:22:22.151Z,10.43
2022-10-06T21:24:51.030Z,10.42
2022-10-06T21:27:21.326Z,10.38
2022-10-06T21:29:57.708Z,10.33
2022-10-06T21:32:28.791Z,10.31
2022-10-06T21:35:02.176Z,10.26
2022-10-06T21:37:41.298Z,10.18
2022-10-06T21:40:21.156Z,10.15
2022-10-06T21:43:01.405Z,10.13
2022-10-06T21:45:44.887Z,10.12
2022-10-06T21:48:40.359Z,10.14
2022-10-06T21:51:17.107Z,10.18
2022-10-06T21:53:58.860Z,10.17
2022-10-06T21:56:41.502Z,10.14
2022-10-06T21:59:21.997Z,10.13
2022-10-06T22:01:54.783Z,10.18
2022-10-06T22:04:48.069Z,10.24
2022-10-06T22:07:58.681Z,10.28
2022-10-06T22:11:07.030Z,10.25
2022-10-06T22:13:48.899Z,10.20
2022-10-06T22:17:15.085Z,10.22
2022-10-06T22:20:02.934Z,10.29
2022-10-06T22:22:55.860Z,10.28
2022-10-06T22:25:33.590Z,10.24
2022-10-06T22:28:27.513Z,10.21
2022-10-06T22:31:14.861Z,10.14
2022-10-06T22:34:01.238Z,10.07
2022-10-06T22:36:50.962Z,10.01
2022-10-06T22:39:20.276Z,9.94
2022-10-06T22:45:08.929Z,9.81
2022-10-06T22:51:20.435Z,9.83
2022-10-06T22:54:48.926Z,9.78
2022-10-06T23:00:33.158Z,9.71
2022-10-06T23:03:37.520Z,9.66
2022-10-06T23:07:15.251Z,9.54
2022-10-06T23:13:30.706Z,9.42
2022-10-06T23:16:39.592Z,9.42
2022-10-06T23:19:14.973Z,9.46
2022-10-06T23:22:18.996Z,9.45
2022-10-06T23:25:07.957Z,9.45
2022-10-06T23:28:22.176Z,9.46
2022-10-06T23:32:38.825Z,9.51
2022-10-06T23:35:21.288Z,9.58
2022-10-06T23:38:25.560Z,9.62
2022-10-06T23:45:22.687Z,9.66
2022-10-06T23:48:33.776Z,9.67
2022-10-06T23:51:46.090Z,9.67
2022-10-06T23:54:50.900Z,9.68
2022-10-06T23:57:50.365Z,9.65
